02:15
Airports
Links
Donate
Help keep this website running!
PayPal
Bitcoin
METAR
EGLL 110150Z AUTO 05005KT 3100 BR OVC003 01/01 Q0981 NOSIG
Current Weather Conditions at EGLL
LIFR 01:50:00 11-12-17
Automated station, no observer
Altimeter:28.97 hg
Temp:1.0°c 34°f
Dew point:1.0°c 34°f
Wind:5 knots, 5.8 mph, 3 m/s, from 50°
Visibility:1.93 statute miles
300(OVC) Overcast
No significant weather changes expected within 2 hours.
Past METAR reports
LIFR 01:20:00 11-12-17
Automated station, no observer
Altimeter:28.97 hg
Temp:1.0°c 34°f
Dew point:1.0°c 34°f
Wind:6 knots, 6.9 mph, 3 m/s, from 60°
Visibility:1.99 statute miles
200(OVC) Overcast
No significant weather changes expected within 2 hours.
EGLL 110120Z AUTO 06006KT 3200 BR OVC002 01/01 Q0981 NOSIG
LIFR 00:50:00 11-12-17
Automated station, no observer
Altimeter:28.97 hg
Temp:1.0°c 34°f
Dew point:1.0°c 34°f
Wind:6 knots, 6.9 mph, 3 m/s, from 60°
Visibility:1.99 statute miles
300(OVC) Overcast
No significant weather changes expected within 2 hours.
EGLL 110050Z AUTO 06006KT 3200 BR OVC003 01/01 Q0981 NOSIG
LIFR 00:20:00 11-12-17
Automated station, no observer
Altimeter:28.97 hg
Temp:2.0°c 36°f
Dew point:1.0°c 34°f
Wind:5 knots, 5.8 mph, 3 m/s, from 50°
Visibility:2.36 statute miles
300(OVC) Overcast
No significant weather changes expected within 2 hours.
EGLL 110020Z AUTO 05005KT 3800 BR OVC003 02/01 Q0981 NOSIG
LIFR 23:50:00 10-12-17
Automated station, no observer
Altimeter:28.97 hg
Temp:2.0°c 36°f
Dew point:1.0°c 34°f
Wind:4 knots, 4.6 mph, 2 m/s, from 60°
Visibility:2.24 statute miles
300(OVC) Overcast
No significant weather changes expected within 2 hours.
EGLL 102350Z AUTO 06004KT 030V100 3600 BR OVC003 02/01 Q0981 NOSIG
LIFR 23:20:00 10-12-17
Automated station, no observer
Altimeter:28.94 hg
Temp:1.0°c 34°f
Dew point:1.0°c 34°f
Wind:7 knots, 8.1 mph, 4 m/s, from 60°
Visibility:2.49 statute miles
300(OVC) Overcast
No significant weather changes expected within 2 hours.
EGLL 102320Z AUTO 06007KT 4000 BR OVC003 01/01 Q0980 NOSIG
LIFR 22:50:00 10-12-17
Automated station, no observer
Altimeter:28.97 hg
Temp:2.0°c 36°f
Dew point:1.0°c 34°f
Wind:6 knots, 6.9 mph, 3 m/s, from 50°
Visibility:2.86 statute miles
400(OVC) Overcast
EGLL 102250Z AUTO 05006KT 4600 HZ OVC004 02/01 Q0981 TEMPO 5000 BKN005
TAF
TAF EGLL 102253Z 1100/1206 05008KT 6000 BKN006 TEMPO 1100/1106 3000 BR BKN003 TEMPO 1106/1116 2000 -RASN BKN003 PROB30 TEMPO 1106/1116 01015G25KT 1000 SN BECMG 1113/1116 33010KT 9999 FEW030
Forecast at EGLL
TEMPO 00:00 11-12-17 to 06:00 11-12-17
BR
Visibility:1.86 statute miles
300BKN Broken
00:00 11-12-17 to 13:00 11-12-17
Wind:8 Knots from 50°
Visibility:3.73 statute miles
600BKN Broken
TEMPO 06:00 11-12-17 to 16:00 11-12-17
-RA -SN
Visibility:1.24 statute miles
300BKN Broken
TEMPO 06:00 11-12-17 to 16:00 11-12-17
30% SN
Wind:15 Knots from 10°
Visibility:0.62 statute miles
BECMG 13:00 11-12-17 to 06:00 12-12-17
Wind:10 Knots from 330°
Visibility:6.21 statute miles
3000FEW A few